Time;durP1;ratioP1;P1;durP2;ratioP2;P2;SDS_P1;SDS_P2;PMS_P1;PMS_P2;Temp;Humidity;BMP_temperature;BMP_pressure;BME280_temperature;BME280_humidity;BME280_pressure;Samples;Min_cycle;Max_cycle;Signal;HPM_P1;HPM_P2
2021/06/23 00:00:35;;;;;;;16.35;9.88;;;15.40;99.90;;;;;;5046220;28;20079;-74
2021/06/23 00:03:01;;;;;;;12.48;9.52;;;15.40;99.90;;;;;;5042726;28;20021;-74
2021/06/23 00:05:28;;;;;;;15.00;9.32;;;15.40;99.90;;;;;;5038824;28;20029;-74
2021/06/23 00:07:54;;;;;;;12.70;9.23;;;15.40;99.90;;;;;;5039834;28;20045;-74
2021/06/23 00:10:20;;;;;;;14.52;10.30;;;15.40;99.90;;;;;;5039953;28;20052;-74
2021/06/23 00:12:49;;;;;;;15.13;9.50;;;15.40;99.90;;;;;;5042413;28;20056;-74
2021/06/23 00:15:16;;;;;;;15.18;9.80;;;15.40;99.90;;;;;;5044458;28;20622;-74
2021/06/23 00:17:42;;;;;;;16.25;9.65;;;15.40;99.90;;;;;;5041258;28;20024;-74
2021/06/23 00:20:08;;;;;;;16.00;9.70;;;15.50;99.90;;;;;;5039567;28;20443;-74
2021/06/23 00:22:34;;;;;;;13.68;9.77;;;15.50;99.90;;;;;;5044872;28;20045;-74
2021/06/23 00:24:59;;;;;;;18.08;10.77;;;15.50;99.90;;;;;;5040004;28;20098;-74
2021/06/23 00:27:29;;;;;;;14.20;9.68;;;15.50;99.90;;;;;;5034318;28;20028;-74
2021/06/23 00:29:55;;;;;;;14.80;9.20;;;15.50;99.90;;;;;;5039163;28;20042;-74
2021/06/23 00:32:21;;;;;;;21.90;9.20;;;15.50;99.90;;;;;;5035693;28;20080;-75
2021/06/23 00:34:49;;;;;;;15.07;9.35;;;15.50;99.90;;;;;;5038099;28;20028;-74
2021/06/23 00:37:17;;;;;;;13.27;9.52;;;15.50;99.90;;;;;;5039074;28;20021;-73
2021/06/23 00:39:45;;;;;;;10.77;8.43;;;15.60;99.90;;;;;;5038834;28;20140;-74
2021/06/23 00:42:13;;;;;;;11.80;8.10;;;15.60;99.90;;;;;;5044032;28;20484;-74
2021/06/23 00:44:40;;;;;;;11.60;9.30;;;15.60;99.90;;;;;;5039548;28;20459;-74
2021/06/23 00:47:08;;;;;;;14.10;9.10;;;15.60;99.90;;;;;;5038704;28;20030;-74
2021/06/23 00:49:36;;;;;;;12.00;8.40;;;15.60;99.90;;;;;;5024607;28;20039;-73
2021/06/23 00:52:05;;;;;;;10.05;8.23;;;15.60;99.90;;;;;;5034020;28;20021;-74
2021/06/23 00:54:31;;;;;;;12.35;8.60;;;15.60;99.90;;;;;;5038140;28;20157;-74
2021/06/23 00:56:59;;;;;;;11.70;7.88;;;15.60;99.90;;;;;;5017431;28;20103;-74
2021/06/23 00:59:27;;;;;;;12.70;8.98;;;15.70;99.90;;;;;;5019145;28;20107;-74
2021/06/23 01:01:55;;;;;;;14.55;9.35;;;15.70;99.90;;;;;;5036058;28;20525;-74
2021/06/23 01:04:23;;;;;;;14.68;8.98;;;15.70;99.90;;;;;;5037710;28;20045;-74
2021/06/23 01:06:49;;;;;;;13.70;9.15;;;15.70;99.90;;;;;;5035088;28;20056;-74
2021/06/23 01:09:14;;;;;;;11.88;8.63;;;15.70;99.90;;;;;;5038584;28;20036;-74
2021/06/23 01:11:45;;;;;;;17.23;9.50;;;15.70;99.90;;;;;;5037770;28;20116;-74
2021/06/23 01:14:11;;;;;;;13.75;9.20;;;15.70;99.90;;;;;;5039619;28;20825;-74
2021/06/23 01:16:38;;;;;;;16.98;9.68;;;15.70;99.90;;;;;;5040680;28;20029;-74
2021/06/23 01:19:15;;;;;;;16.23;9.05;;;15.70;99.90;;;;;;5025302;28;20022;-74
2021/06/23 01:21:44;;;;;;;12.85;10.02;;;15.70;99.90;;;;;;5039497;28;20036;-74
2021/06/23 01:24:14;;;;;;;12.95;8.95;;;15.70;99.90;;;;;;5023771;28;20044;-74
2021/06/23 01:26:40;;;;;;;11.10;8.02;;;15.70;99.90;;;;;;5034398;28;20126;-74
2021/06/23 01:29:05;;;;;;;11.63;8.13;;;15.70;99.90;;;;;;5036677;28;20499;-74
2021/06/23 01:31:31;;;;;;;12.73;8.70;;;15.70;99.90;;;;;;5034447;28;20052;-74
2021/06/23 01:33:59;;;;;;;11.05;8.40;;;15.70;99.90;;;;;;5018978;28;20057;-73
2021/06/23 01:36:25;;;;;;;12.98;8.80;;;15.80;99.90;;;;;;5042218;28;20100;-74
2021/06/23 01:38:50;;;;;;;12.15;8.50;;;15.80;99.90;;;;;;5040964;28;20432;-74
2021/06/23 01:41:16;;;;;;;11.73;8.57;;;15.80;99.90;;;;;;5042076;28;20025;-74
2021/06/23 01:43:45;;;;;;;14.38;8.60;;;15.80;99.90;;;;;;5046727;28;20021;-74
2021/06/23 01:46:13;;;;;;;11.73;8.02;;;15.80;99.90;;;;;;5032044;28;20032;-74
2021/06/23 01:48:39;;;;;;;11.25;7.30;;;15.80;99.90;;;;;;5040082;28;20025;-74
2021/06/23 01:51:05;;;;;;;9.75;7.45;;;15.80;99.90;;;;;;5041417;28;20075;-73
2021/06/23 01:53:33;;;;;;;9.65;7.38;;;15.80;99.90;;;;;;5032834;28;20029;-73
2021/06/23 01:55:59;;;;;;;11.02;7.00;;;15.80;99.90;;;;;;5037543;28;20059;-73
2021/06/23 01:58:29;;;;;;;10.30;6.82;;;15.90;99.90;;;;;;5037605;28;20437;-74
2021/06/23 02:01:14;;;;;;;9.77;7.15;;;15.90;99.90;;;;;;5035825;28;20454;-73
2021/06/23 02:03:55;;;;;;;14.73;7.63;;;15.90;99.90;;;;;;5043662;28;20112;-73
2021/06/23 02:06:40;;;;;;;9.75;6.97;;;15.90;99.90;;;;;;5038532;28;20021;-73
2021/06/23 02:09:39;;;;;;;11.20;7.13;;;15.90;99.90;;;;;;5032854;28;20165;-73
2021/06/23 02:12:24;;;;;;;10.35;7.18;;;16.00;99.90;;;;;;5037013;28;20037;-73
2021/06/23 02:14:56;;;;;;;13.52;7.32;;;15.90;99.90;;;;;;5039303;28;20018;-73
2021/06/23 02:17:28;;;;;;;11.23;6.35;;;16.00;99.90;;;;;;5040021;28;20391;-73
2021/06/23 02:19:55;;;;;;;9.95;6.63;;;16.00;99.90;;;;;;5023245;28;20676;-74
2021/06/23 02:22:30;;;;;;;10.77;6.30;;;16.00;99.90;;;;;;5037985;28;20033;-73
2021/06/23 02:25:02;;;;;;;9.98;6.68;;;16.00;99.90;;;;;;5033285;28;20048;-73
2021/06/23 02:27:28;;;;;;;11.02;6.57;;;16.00;99.90;;;;;;5036346;28;20118;-73
2021/06/23 02:29:56;;;;;;;9.40;6.32;;;16.00;99.90;;;;;;5020234;28;20719;-73
2021/06/23 02:32:27;;;;;;;12.00;6.40;;;16.00;99.90;;;;;;5032494;28;20033;-74
2021/06/23 02:34:54;;;;;;;8.98;6.40;;;16.00;99.90;;;;;;5016674;28;20040;-74
2021/06/23 02:37:19;;;;;;;10.05;6.60;;;16.00;99.90;;;;;;5036291;28;20029;-74
2021/06/23 02:39:47;;;;;;;8.75;6.85;;;16.00;99.90;;;;;;5035785;28;20044;-73
2021/06/23 02:42:13;;;;;;;9.10;6.65;;;16.00;99.90;;;;;;5007318;28;20834;-74
2021/06/23 02:44:41;;;;;;;9.55;7.25;;;16.00;99.90;;;;;;5019086;28;20035;-74
2021/06/23 02:47:10;;;;;;;9.77;7.47;;;16.00;99.90;;;;;;5016905;28;20038;-73
2021/06/23 02:49:37;;;;;;;9.32;7.07;;;16.00;99.90;;;;;;5035693;28;20129;-73
2021/06/23 02:52:03;;;;;;;11.65;8.27;;;16.00;99.90;;;;;;5032953;28;20051;-74
2021/06/23 02:54:31;;;;;;;10.15;7.40;;;16.00;99.90;;;;;;5035094;28;20029;-74
2021/06/23 02:56:59;;;;;;;9.95;7.72;;;16.00;99.90;;;;;;5035038;28;20082;-73
2021/06/23 02:59:25;;;;;;;9.48;7.50;;;16.00;99.90;;;;;;5022015;28;20029;-73
2021/06/23 03:01:53;;;;;;;9.48;7.90;;;16.00;99.90;;;;;;5034362;28;20029;-74
2021/06/23 03:04:19;;;;;;;10.13;7.30;;;16.00;99.90;;;;;;5039871;28;20025;-74
2021/06/23 03:06:49;;;;;;;11.32;7.55;;;16.00;99.90;;;;;;5025993;28;20040;-74
2021/06/23 03:09:14;;;;;;;10.13;8.40;;;16.00;99.90;;;;;;5040811;28;20025;-73
2021/06/23 03:11:43;;;;;;;13.73;9.52;;;16.00;99.90;;;;;;5039259;28;20033;-73
2021/06/23 03:14:09;;;;;;;14.45;9.25;;;15.90;99.90;;;;;;5037521;28;20035;-74
2021/06/23 03:16:34;;;;;;;12.52;8.90;;;15.90;99.90;;;;;;5022584;28;20033;-73
2021/06/23 03:19:00;;;;;;;13.65;10.18;;;15.90;99.90;;;;;;5036262;28;20029;-73
2021/06/23 03:21:28;;;;;;;14.63;9.02;;;15.90;99.90;;;;;;5036095;28;20056;-73
2021/06/23 03:23:54;;;;;;;14.15;9.68;;;15.90;99.90;;;;;;5040246;28;20153;-73
2021/06/23 03:26:24;;;;;;;11.27;9.30;;;15.90;99.90;;;;;;5037006;28;20144;-73
2021/06/23 03:28:52;;;;;;;13.75;9.23;;;15.90;99.90;;;;;;5039956;28;20037;-73
2021/06/23 03:31:20;;;;;;;12.68;8.95;;;15.90;99.90;;;;;;5040128;28;20037;-74
2021/06/23 03:33:48;;;;;;;11.07;8.65;;;15.90;99.90;;;;;;5039622;28;20035;-74
2021/06/23 03:36:16;;;;;;;12.20;8.55;;;15.90;99.90;;;;;;5040488;28;20033;-73
2021/06/23 03:38:44;;;;;;;9.45;8.30;;;16.00;99.90;;;;;;5041244;28;20028;-74
2021/06/23 03:41:12;;;;;;;9.50;8.05;;;15.90;99.90;;;;;;5040657;28;20343;-73
2021/06/23 03:43:37;;;;;;;12.15;7.40;;;16.00;99.90;;;;;;5039574;28;20025;-73
2021/06/23 03:46:08;;;;;;;10.48;7.82;;;16.00;99.90;;;;;;5038552;28;20024;-74
2021/06/23 03:48:33;;;;;;;11.90;8.25;;;16.00;99.90;;;;;;5039312;28;20033;-74
2021/06/23 03:50:59;;;;;;;10.88;8.23;;;16.00;99.90;;;;;;5023304;28;20869;-74
2021/06/23 03:53:27;;;;;;;9.85;8.27;;;16.00;99.90;;;;;;5039624;28;20029;-74
2021/06/23 03:55:54;;;;;;;9.05;8.00;;;16.00;99.90;;;;;;5037443;28;20059;-73
2021/06/23 03:58:20;;;;;;;13.40;8.25;;;16.00;99.90;;;;;;5039799;28;20063;-73
2021/06/23 04:00:46;;;;;;;11.20;8.02;;;16.00;99.90;;;;;;5038808;28;20420;-74
2021/06/23 04:03:11;;;;;;;11.00;7.63;;;16.10;99.90;;;;;;5039836;28;20071;-73
2021/06/23 04:05:39;;;;;;;9.43;7.70;;;16.10;99.90;;;;;;5038652;28;20488;-73
2021/06/23 04:08:05;;;;;;;9.50;7.32;;;16.10;99.90;;;;;;5045018;28;20545;-74
2021/06/23 04:10:35;;;;;;;10.98;7.85;;;16.10;99.90;;;;;;5044100;28;20028;-74
2021/06/23 04:13:03;;;;;;;9.35;7.47;;;16.10;99.90;;;;;;5014486;28;20029;-73
2021/06/23 04:15:31;;;;;;;8.43;7.15;;;16.10;99.90;;;;;;5044231;28;20099;-73
2021/06/23 04:17:59;;;;;;;9.90;7.65;;;16.10;99.90;;;;;;5044854;28;20165;-74
2021/06/23 04:20:25;;;;;;;8.02;6.68;;;16.20;99.90;;;;;;5039579;28;20094;-74
2021/06/23 04:22:50;;;;;;;10.45;6.80;;;16.20;99.90;;;;;;5040190;28;20033;-74
2021/06/23 04:25:16;;;;;;;8.43;6.68;;;16.20;99.90;;;;;;5040875;28;20438;-73
2021/06/23 04:27:42;;;;;;;9.63;6.68;;;16.20;99.90;;;;;;5046921;28;20029;-74
2021/06/23 04:30:11;;;;;;;9.38;5.93;;;16.20;99.90;;;;;;5038543;28;20063;-74
2021/06/23 04:32:39;;;;;;;8.63;6.47;;;16.30;99.90;;;;;;5038578;28;20048;-73
2021/06/23 04:35:07;;;;;;;9.52;6.60;;;16.30;99.90;;;;;;5039608;28;20033;-74
2021/06/23 04:37:37;;;;;;;9.70;6.57;;;16.30;99.90;;;;;;5034379;28;20017;-74
2021/06/23 04:40:04;;;;;;;16.88;6.68;;;16.40;99.90;;;;;;5035420;28;20055;-74
2021/06/23 04:42:32;;;;;;;8.13;6.00;;;16.40;99.90;;;;;;5037160;28;20029;-73
2021/06/23 04:45:00;;;;;;;7.55;6.38;;;16.50;99.90;;;;;;5033979;28;20033;-74
2021/06/23 04:47:27;;;;;;;7.40;6.05;;;16.50;99.90;;;;;;5020455;28;20037;-74
2021/06/23 04:49:56;;;;;;;7.03;5.40;;;16.50;99.90;;;;;;5042888;28;20039;-74
2021/06/23 04:52:21;;;;;;;7.50;5.80;;;16.60;99.90;;;;;;5044202;28;20032;-74
2021/06/23 04:54:47;;;;;;;8.10;6.55;;;16.60;99.90;;;;;;5038505;28;20325;-74
2021/06/23 04:57:15;;;;;;;8.57;6.40;;;16.60;99.90;;;;;;5019289;28;20983;-73
2021/06/23 04:59:41;;;;;;;9.48;7.57;;;16.70;99.90;;;;;;5037733;28;20151;-74
2021/06/23 05:02:07;;;;;;;10.52;7.65;;;16.70;99.90;;;;;;5039793;28;20130;-74
2021/06/23 05:04:36;;;;;;;10.63;7.95;;;16.70;99.90;;;;;;5033697;28;20029;-73
2021/06/23 05:07:03;;;;;;;10.57;8.00;;;16.70;99.90;;;;;;5039156;28;20068;-74
2021/06/23 05:09:32;;;;;;;10.88;7.93;;;16.70;99.90;;;;;;5039113;28;20090;-74
2021/06/23 05:11:57;;;;;;;9.27;8.02;;;16.70;99.90;;;;;;5024273;28;20067;-74
2021/06/23 05:14:25;;;;;;;12.10;7.75;;;16.70;99.90;;;;;;5036791;28;20033;-74
2021/06/23 05:16:51;;;;;;;10.57;7.90;;;16.80;99.90;;;;;;5037905;28;20453;-74
2021/06/23 05:19:18;;;;;;;9.93;7.97;;;16.80;99.90;;;;;;5033450;28;20031;-74
2021/06/23 05:21:43;;;;;;;12.20;8.25;;;16.80;99.90;;;;;;5023195;28;20392;-74
2021/06/23 05:24:11;;;;;;;11.85;7.75;;;16.80;99.90;;;;;;5038476;28;20049;-74
2021/06/23 05:26:42;;;;;;;11.10;7.20;;;16.80;99.90;;;;;;5032067;28;20087;-74
2021/06/23 05:29:07;;;;;;;9.18;6.90;;;16.90;99.90;;;;;;5037741;28;20125;-74
2021/06/23 05:31:33;;;;;;;9.00;6.97;;;16.90;99.90;;;;;;5037558;28;20483;-74
2021/06/23 05:33:59;;;;;;;8.60;7.28;;;16.90;99.90;;;;;;5043035;28;20446;-74
2021/06/23 05:36:24;;;;;;;10.27;8.05;;;16.90;99.90;;;;;;5043742;28;20474;-74
2021/06/23 05:38:53;;;;;;;10.65;7.68;;;17.00;99.90;;;;;;5037552;28;20445;-74
2021/06/23 05:41:21;;;;;;;11.18;8.10;;;17.00;99.90;;;;;;5033298;28;20029;-77
2021/06/23 05:43:47;;;;;;;11.57;8.00;;;17.00;99.90;;;;;;5020343;28;20044;-76
2021/06/23 05:46:12;;;;;;;15.05;9.02;;;17.00;99.90;;;;;;5036763;28;20037;-78
2021/06/23 05:48:40;;;;;;;12.50;9.30;;;17.00;99.90;;;;;;5037329;28;20020;-77
2021/06/23 05:51:07;;;;;;;12.63;8.50;;;17.00;99.90;;;;;;5038538;28;20064;-77
2021/06/23 05:53:33;;;;;;;12.50;8.73;;;17.00;99.90;;;;;;5004127;28;20052;-77
2021/06/23 05:55:58;;;;;;;13.38;9.07;;;17.00;99.90;;;;;;5020873;28;20135;-77
2021/06/23 05:58:24;;;;;;;10.52;8.32;;;17.10;99.90;;;;;;5038495;28;20108;-77
2021/06/23 06:00:52;;;;;;;12.30;8.93;;;17.10;99.90;;;;;;5017228;28;20026;-77
2021/06/23 06:03:20;;;;;;;12.98;9.10;;;17.10;99.90;;;;;;5037463;28;20029;-77
2021/06/23 06:05:48;;;;;;;10.85;9.40;;;17.20;99.90;;;;;;5032020;28;20029;-77
2021/06/23 06:08:16;;;;;;;21.65;10.35;;;17.10;99.90;;;;;;5039927;28;20037;-76
2021/06/23 06:10:44;;;;;;;11.18;9.00;;;17.20;99.90;;;;;;5041134;28;20025;-74
2021/06/23 06:13:12;;;;;;;14.50;10.25;;;17.10;99.90;;;;;;5037254;28;20047;-74
2021/06/23 06:15:40;;;;;;;10.93;9.43;;;17.10;99.90;;;;;;5036599;28;20033;-74
2021/06/23 06:18:06;;;;;;;12.95;10.40;;;17.20;99.90;;;;;;5037127;28;20052;-74
2021/06/23 06:20:33;;;;;;;12.35;10.43;;;17.20;99.90;;;;;;5039469;28;20029;-71
2021/06/23 06:23:01;;;;;;;11.55;9.50;;;17.20;99.90;;;;;;5055378;28;20028;-73
2021/06/23 06:25:26;;;;;;;15.25;9.80;;;17.20;99.90;;;;;;5035370;28;20124;-74
2021/06/23 06:27:52;;;;;;;11.90;9.60;;;17.30;99.90;;;;;;5036267;28;20509;-74
2021/06/23 06:30:19;;;;;;;12.93;9.43;;;17.30;99.90;;;;;;5041739;28;20020;-75
2021/06/23 06:32:47;;;;;;;14.85;9.77;;;17.40;99.90;;;;;;5042442;28;20026;-74
2021/06/23 06:35:13;;;;;;;24.08;11.15;;;17.40;99.90;;;;;;5038997;28;20067;-72
2021/06/23 06:37:41;;;;;;;16.35;9.90;;;17.50;99.90;;;;;;5023508;28;20029;-72
2021/06/23 06:40:07;;;;;;;21.27;11.10;;;17.50;99.90;;;;;;5036565;28;20869;-72
2021/06/23 06:42:33;;;;;;;18.20;9.68;;;17.50;99.90;;;;;;5022060;28;20048;-75
2021/06/23 06:45:03;;;;;;;13.32;9.60;;;17.50;99.90;;;;;;5039879;28;20033;-75
2021/06/23 06:47:31;;;;;;;19.70;10.18;;;17.60;99.90;;;;;;5039894;28;20040;-74
2021/06/23 06:49:57;;;;;;;14.15;9.65;;;17.60;99.90;;;;;;5038796;28;20075;-75
2021/06/23 06:52:23;;;;;;;16.85;9.45;;;17.60;99.90;;;;;;5028893;28;20479;-75
2021/06/23 06:54:48;;;;;;;21.67;10.05;;;17.60;99.90;;;;;;5020346;28;20029;-74
2021/06/23 06:57:14;;;;;;;13.68;10.05;;;17.70;99.90;;;;;;5040457;28;20041;-75
2021/06/23 06:59:39;;;;;;;12.95;9.52;;;17.70;99.90;;;;;;5039474;28;20508;-71
2021/06/23 07:02:05;;;;;;;12.85;9.23;;;17.70;99.90;;;;;;5042151;28;20477;-73
2021/06/23 07:04:31;;;;;;;13.82;9.52;;;17.80;99.90;;;;;;5041572;28;20063;-74
2021/06/23 07:06:59;;;;;;;14.52;9.38;;;17.80;99.90;;;;;;5025324;28;20044;-74
2021/06/23 07:09:27;;;;;;;11.63;9.20;;;17.80;99.90;;;;;;5040607;28;20030;-74
2021/06/23 07:11:53;;;;;;;13.10;9.00;;;17.90;99.90;;;;;;5024489;28;20025;-74
2021/06/23 07:14:21;;;;;;;14.57;9.85;;;17.90;99.90;;;;;;5042748;28;20059;-74
2021/06/23 07:16:47;;;;;;;12.48;9.93;;;17.90;99.90;;;;;;5039738;28;20097;-74
2021/06/23 07:19:13;;;;;;;13.45;10.48;;;18.00;99.90;;;;;;5041481;28;20100;-74
2021/06/23 07:21:42;;;;;;;12.18;9.60;;;18.00;99.90;;;;;;5037435;28;20374;-75
2021/06/23 07:24:11;;;;;;;16.38;10.45;;;18.10;99.90;;;;;;5038068;28;20045;-74
2021/06/23 07:26:37;;;;;;;15.00;9.65;;;18.10;99.90;;;;;;5026173;28;20029;-74
2021/06/23 07:29:06;;;;;;;13.57;10.70;;;18.20;99.90;;;;;;5037476;28;20021;-74
2021/06/23 07:34:35;;;;;;;12.00;10.10;;;18.30;99.90;;;;;;5041506;28;20666;-74
2021/06/23 07:36:52;;;;;;;10.30;9.20;;;18.30;99.90;;;;;;5038287;28;20076;-75
2021/06/23 07:39:18;;;;;;;13.52;10.27;;;18.40;99.90;;;;;;5040193;28;20040;-74
2021/06/23 07:41:46;;;;;;;23.48;10.15;;;18.40;99.90;;;;;;5039617;28;20029;-74
2021/06/23 07:44:13;;;;;;;16.45;10.18;;;18.40;99.90;;;;;;5008154;28;20110;-74
2021/06/23 07:46:46;;;;;;;11.98;10.05;;;18.50;99.90;;;;;;5034636;28;20758;-74
2021/06/23 07:49:15;;;;;;;12.43;10.38;;;18.50;99.90;;;;;;5040260;28;20037;-74
2021/06/23 08:08:16;;;;;;;12.25;8.95;;;19.60;99.90;;;;;;5042433;28;20093;-75
2021/06/23 08:10:52;;;;;;;11.05;8.73;;;19.80;99.90;;;;;;5041785;28;20095;-75
2021/06/23 08:13:18;;;;;;;12.93;9.50;;;19.90;99.90;;;;;;5029994;28;20233;-75
2021/06/23 08:15:45;;;;;;;10.80;8.43;;;20.10;99.90;;;;;;5043805;28;21225;-74
2021/06/23 08:18:15;;;;;;;13.43;9.00;;;20.20;99.90;;;;;;5037520;28;20079;-75
2021/06/23 08:20:41;;;;;;;11.57;7.72;;;20.40;99.90;;;;;;5043580;28;20395;-74
2021/06/23 08:23:06;;;;;;;11.15;9.38;;;20.60;99.90;;;;;;5044376;28;20040;-75
2021/06/23 08:25:32;;;;;;;11.45;8.57;;;20.70;99.90;;;;;;5044743;28;20082;-74
2021/06/23 08:27:58;;;;;;;11.48;8.70;;;20.70;99.90;;;;;;5042238;28;20478;-74
2021/06/23 08:30:24;;;;;;;10.73;9.00;;;20.70;99.90;;;;;;5042052;28;20565;-74
2021/06/23 08:32:50;;;;;;;10.52;8.30;;;20.70;99.90;;;;;;5040747;28;20348;-74
2021/06/23 08:35:19;;;;;;;10.95;9.25;;;20.80;99.90;;;;;;5042450;28;21940;-74
2021/06/23 08:37:44;;;;;;;10.77;8.32;;;20.90;99.90;;;;;;5042969;28;20082;-75
2021/06/23 08:40:11;;;;;;;10.73;8.80;;;20.90;99.90;;;;;;5038783;28;20029;-74
2021/06/23 08:42:37;;;;;;;10.38;7.57;;;21.00;99.90;;;;;;5038967;28;20031;-74
2021/06/23 08:45:04;;;;;;;11.32;9.10;;;21.20;99.90;;;;;;5042543;28;20115;-75
2021/06/23 08:47:32;;;;;;;10.82;8.63;;;21.20;99.90;;;;;;5040174;28;20025;-74
2021/06/23 08:49:58;;;;;;;9.50;8.18;;;21.20;99.90;;;;;;5041843;28;20434;-74
2021/06/23 08:52:26;;;;;;;10.65;9.57;;;21.30;99.90;;;;;;5041995;28;20033;-76
2021/06/23 08:54:55;;;;;;;10.93;8.93;;;21.30;99.90;;;;;;5041046;28;20025;-74
2021/06/23 08:57:21;;;;;;;9.48;7.78;;;21.50;99.90;;;;;;5042177;28;20021;-74
2021/06/23 08:59:47;;;;;;;9.45;7.93;;;21.60;99.90;;;;;;5039591;28;20390;-74
2021/06/23 09:02:13;;;;;;;10.00;8.50;;;21.70;99.90;;;;;;5041503;28;20421;-74
2021/06/23 09:05:01;;;;;;;12.55;8.40;;;21.80;99.90;;;;;;5040559;28;20025;-74
2021/06/23 09:07:40;;;;;;;9.57;7.65;;;21.90;99.90;;;;;;5041658;28;20032;-74
2021/06/23 09:10:28;;;;;;;10.02;7.63;;;22.00;99.90;;;;;;5030307;28;20132;-71
2021/06/23 09:13:09;;;;;;;12.70;9.00;;;22.00;99.90;;;;;;5034751;28;20156;-72
2021/06/23 09:15:55;;;;;;;11.07;9.00;;;22.10;99.90;;;;;;5042356;28;20358;-74
2021/06/23 09:18:22;;;;;;;11.88;7.97;;;22.20;99.90;;;;;;5047548;28;20086;-75
2021/06/23 09:20:51;;;;;;;9.23;7.63;;;22.20;99.90;;;;;;5043484;28;20043;-74
2021/06/23 09:23:19;;;;;;;9.40;7.35;;;22.20;99.90;;;;;;5037374;28;20041;-74
2021/06/23 09:25:45;;;;;;;11.43;6.63;;;22.20;99.90;;;;;;5041478;28;20040;-74
2021/06/23 09:28:19;;;;;;;10.38;6.70;;;22.30;99.90;;;;;;5062884;28;20048;-74
2021/06/23 09:30:46;;;;;;;8.68;6.60;;;22.40;99.90;;;;;;5039912;28;20029;-73
2021/06/23 09:33:20;;;;;;;8.75;6.45;;;22.40;99.90;;;;;;5042758;28;20106;-73
2021/06/23 09:35:59;;;;;;;7.55;5.40;;;22.50;99.90;;;;;;5043126;28;20060;-74
2021/06/23 09:38:44;;;;;;;7.70;5.90;;;22.50;99.90;;;;;;5039498;28;20026;-73
2021/06/23 09:41:28;;;;;;;7.50;5.95;;;22.60;99.90;;;;;;5043066;28;20168;-74
2021/06/23 09:43:59;;;;;;;7.72;5.80;;;22.70;99.90;;;;;;5042210;28;20025;-75
2021/06/23 09:46:39;;;;;;;7.75;6.20;;;22.60;99.90;;;;;;5042297;28;20082;-75
2021/06/23 09:49:11;;;;;;;8.90;6.18;;;22.70;99.90;;;;;;5037832;28;20037;-74
2021/06/23 09:51:59;;;;;;;8.90;6.43;;;22.70;99.90;;;;;;5025485;28;20029;-72
2021/06/23 09:54:25;;;;;;;8.00;6.38;;;22.70;99.90;;;;;;5038694;28;20029;-74
2021/06/23 09:56:51;;;;;;;7.68;5.20;;;22.70;99.90;;;;;;5039419;28;21821;-74
2021/06/23 09:59:34;;;;;;;8.45;6.70;;;22.80;99.90;;;;;;5041120;28;20063;-74
2021/06/23 10:02:00;;;;;;;8.27;5.40;;;22.80;99.90;;;;;;5046539;28;20052;-74
2021/06/23 10:04:37;;;;;;;7.47;5.45;;;22.70;99.90;;;;;;5039941;28;20025;-74
2021/06/23 10:07:03;;;;;;;6.88;5.65;;;22.80;99.90;;;;;;5038284;28;20696;-74
2021/06/23 10:09:30;;;;;;;8.85;6.43;;;22.80;99.90;;;;;;5040549;28;20030;-74
2021/06/23 10:12:09;;;;;;;7.35;6.00;;;22.90;99.90;;;;;;5035729;28;20028;-74
2021/06/23 10:14:42;;;;;;;6.55;5.15;;;23.00;99.90;;;;;;5033492;28;20025;-74
2021/06/23 10:17:11;;;;;;;8.68;7.07;;;23.00;99.90;;;;;;5042664;28;20142;-74
2021/06/23 10:19:36;;;;;;;7.53;6.53;;;23.00;99.90;;;;;;5039398;28;20049;-75
2021/06/23 10:22:06;;;;;;;9.68;7.13;;;23.10;99.90;;;;;;5041895;28;20048;-75
2021/06/23 10:24:31;;;;;;;7.38;6.40;;;23.10;99.90;;;;;;5042298;28;20049;-74
2021/06/23 10:27:02;;;;;;;7.05;6.30;;;23.10;99.90;;;;;;5038437;28;20055;-74
2021/06/23 10:29:33;;;;;;;8.45;6.63;;;22.90;99.90;;;;;;5037876;28;20499;-74
2021/06/23 10:32:04;;;;;;;9.82;6.93;;;22.90;99.90;;;;;;5039468;28;20033;-74
2021/06/23 10:34:32;;;;;;;;;;;23.00;99.90;;;;;;5040561;28;20028;-75
2021/06/23 10:37:00;;;;;;;9.90;6.50;;;22.90;99.90;;;;;;5039108;28;19966;-74
2021/06/23 10:39:37;;;;;;;8.45;5.93;;;22.70;99.90;;;;;;5040317;28;20100;-74
2021/06/23 10:42:05;;;;;;;9.02;6.50;;;22.80;99.90;;;;;;5025388;28;20029;-75
2021/06/23 10:44:33;;;;;;;10.38;6.95;;;22.90;99.90;;;;;;5036942;28;20056;-75
2021/06/23 10:46:59;;;;;;;7.45;5.95;;;22.90;99.90;;;;;;5035074;28;20029;-75
2021/06/23 10:49:46;;;;;;;7.03;5.63;;;22.90;99.90;;;;;;5037028;28;20025;-74
2021/06/23 10:52:21;;;;;;;8.18;5.63;;;22.90;99.90;;;;;;5054111;28;20025;-76
2021/06/23 10:54:47;;;;;;;7.25;5.75;;;22.80;99.90;;;;;;5039194;28;20029;-75
2021/06/23 10:57:55;;;;;;;7.82;6.18;;;22.90;99.90;;;;;;5036888;28;20025;-73
2021/06/23 11:00:21;;;;;;;7.55;5.70;;;22.70;99.90;;;;;;5008900;28;20029;-73
2021/06/23 11:02:52;;;;;;;6.85;5.85;;;22.60;99.90;;;;;;5039028;28;20367;-75
2021/06/23 11:05:21;;;;;;;7.82;5.57;;;22.60;99.90;;;;;;5040777;28;20115;-74
2021/06/23 11:07:47;;;;;;;7.35;5.38;;;22.60;99.90;;;;;;5039376;28;20037;-75
2021/06/23 11:10:15;;;;;;;7.47;5.82;;;22.50;99.90;;;;;;5043039;28;20681;-75
2021/06/23 11:12:50;;;;;;;7.60;5.57;;;22.60;99.90;;;;;;5040469;28;20660;-75
2021/06/23 11:15:16;;;;;;;8.90;6.07;;;22.50;99.90;;;;;;5038224;28;20045;-76
2021/06/23 11:17:46;;;;;;;8.52;5.70;;;22.40;99.90;;;;;;5040256;28;20032;-75
2021/06/23 11:20:21;;;;;;;8.70;6.20;;;22.40;99.90;;;;;;5045246;28;20025;-76
2021/06/23 11:22:50;;;;;;;7.55;6.07;;;22.50;99.90;;;;;;5041135;28;20029;-75
2021/06/23 11:25:25;;;;;;;7.88;5.90;;;22.60;99.90;;;;;;5044879;28;20056;-75
2021/06/23 11:28:24;;;;;;;8.50;5.95;;;22.60;99.90;;;;;;5044583;28;20024;-75
2021/06/23 11:30:53;;;;;;;7.95;6.50;;;22.60;99.90;;;;;;5045866;28;21845;-75
2021/06/23 11:33:28;;;;;;;8.15;5.90;;;22.50;99.90;;;;;;5035460;28;20048;-74
2021/06/23 11:35:54;;;;;;;7.97;5.60;;;22.50;99.90;;;;;;5042636;28;20454;-75
2021/06/23 11:38:20;;;;;;;7.75;5.10;;;22.50;99.90;;;;;;5043896;28;20139;-75
2021/06/23 11:40:46;;;;;;;6.88;4.80;;;22.40;99.90;;;;;;5043915;28;20457;-76
2021/06/23 11:43:12;;;;;;;6.03;4.63;;;22.30;99.90;;;;;;5043357;28;20045;-76
2021/06/23 11:45:38;;;;;;;7.10;4.97;;;22.20;99.90;;;;;;5042283;28;20167;-71
2021/06/23 11:48:04;;;;;;;5.70;3.88;;;22.00;99.90;;;;;;5047935;28;20501;-75
2021/06/23 11:50:31;;;;;;;7.20;3.83;;;21.90;99.90;;;;;;5040838;28;20041;-76
2021/06/23 11:52:57;;;;;;;6.82;4.40;;;21.80;99.90;;;;;;5043724;28;20086;-75
2021/06/23 11:55:24;;;;;;;6.18;4.90;;;21.70;99.90;;;;;;5042735;28;20029;-76
2021/06/23 11:57:59;;;;;;;7.15;5.10;;;21.60;99.90;;;;;;5045245;28;20025;-75
2021/06/23 12:00:31;;;;;;;8.07;4.75;;;21.50;99.90;;;;;;5044927;28;20029;-75
2021/06/23 12:02:58;;;;;;;6.43;4.88;;;21.40;99.90;;;;;;5058928;28;20029;-75
2021/06/23 12:05:24;;;;;;;6.80;5.20;;;21.40;99.90;;;;;;5042636;28;20036;-74
2021/06/23 12:07:55;;;;;;;7.30;5.25;;;21.40;99.90;;;;;;5044105;28;20091;-74
2021/06/23 12:10:21;;;;;;;6.50;5.03;;;21.40;99.90;;;;;;5044486;28;20044;-71
2021/06/23 12:12:47;;;;;;;6.60;4.93;;;21.40;99.90;;;;;;5063026;28;20108;-72
2021/06/23 12:15:14;;;;;;;6.20;4.90;;;21.30;99.90;;;;;;5041845;28;20083;-74
2021/06/23 12:17:40;;;;;;;6.30;4.82;;;21.40;99.90;;;;;;5011455;28;20021;-75
2021/06/23 12:20:09;;;;;;;6.15;4.85;;;21.40;99.90;;;;;;5038019;28;20041;-74
2021/06/23 12:22:40;;;;;;;8.32;5.00;;;21.20;99.90;;;;;;5040965;28;20473;-74
2021/06/23 12:25:10;;;;;;;6.72;4.85;;;21.20;99.90;;;;;;5041488;28;20075;-73
2021/06/23 12:27:36;;;;;;;7.03;4.65;;;21.20;99.90;;;;;;5025930;28;20033;-71
2021/06/23 12:30:04;;;;;;;7.60;5.38;;;21.10;99.90;;;;;;5041329;28;20430;-70
2021/06/23 12:32:29;;;;;;;7.00;5.50;;;21.00;99.90;;;;;;5024346;28;20115;-74
2021/06/23 12:34:58;;;;;;;8.18;5.82;;;21.00;99.90;;;;;;5040813;28;20136;-73
2021/06/23 12:37:24;;;;;;;6.75;5.63;;;21.00;99.90;;;;;;5044133;28;20036;-72
2021/06/23 12:39:49;;;;;;;6.38;5.57;;;20.90;99.90;;;;;;5045994;28;20021;-73
2021/06/23 12:42:17;;;;;;;7.63;5.70;;;20.90;99.90;;;;;;5042319;28;20068;-72
2021/06/23 12:44:43;;;;;;;7.53;5.65;;;20.80;99.90;;;;;;5044142;28;20088;-72
2021/06/23 12:47:08;;;;;;;7.38;5.38;;;20.80;99.90;;;;;;5044445;28;20090;-72
2021/06/23 12:49:36;;;;;;;6.63;5.13;;;20.70;99.90;;;;;;5042519;28;20095;-72
2021/06/23 12:52:02;;;;;;;7.25;5.35;;;20.70;99.90;;;;;;5043542;28;20112;-72
2021/06/23 12:54:32;;;;;;;7.60;5.45;;;20.60;99.90;;;;;;5041483;28;20040;-73
2021/06/23 12:57:00;;;;;;;7.60;5.30;;;20.50;99.90;;;;;;5042928;28;20067;-72
2021/06/23 12:59:30;;;;;;;6.93;5.10;;;20.40;99.90;;;;;;5042323;28;20439;-72
2021/06/23 13:01:59;;;;;;;8.38;6.00;;;20.50;99.90;;;;;;5041097;28;20067;-73
2021/06/23 13:04:27;;;;;;;7.13;5.80;;;20.40;99.90;;;;;;5042205;28;20052;-73
2021/06/23 13:06:55;;;;;;;8.73;5.38;;;20.40;99.90;;;;;;5041225;28;20091;-72